Vandenberg AFB, California
Current Conditions -  °F | °C
As of 11:55 PM on Thursday 18 Dec 2014 (Local Time) from KVBG Reporting Station
Overcast Overcast  
Wind Chill: 53°   Ceiling: 3500
Heat Index: 53°   Visibility: 10mi
Dew Point: 51°   Wind: 5mph
Humidity: 93%   Direction: 90°E
Pressure: 30.24"   Gusts: NA
Location:  34.7134°N, 120.557°W
Report Text: KVBG 190755Z AUTO 09004KT 10SM OVC035 12/11 A3024 RMK AO2 SLP230 T01170106 401720094 TSNO $
Loading
Personal Weather Stations






























Interactive Weather Map New forecast layout! Learn more

10-Day Weather Forecast

Advertisements
Track Severe Weather on mobile